sim
Sign-in with your pilot id or email,
or register
Callsign
Passwort

Schedule Details

Flight Number: DLH2443 (1)
Departure: Copenhagen Airport (EKCH) at 12:25
Arrival: Munich Airport (EDDM) at 14:00
Route: Lufthansa Passenger Schedule. Enter filed route here before submitting Pirep.

Weather Information
Getting current METAR information for EKCH 260820Z AUTO 21001KT 9999 OVC020/// 14/11 Q0998 NOSIG
Getting current METAR information for EDDM 260820Z 27015KT 9999 SCT019 BKN028 08/05 Q1000 TEMPO 26015G25KT

Schedule Frequency

Route Map